createdAt,value
2023-01-01T00:02:41.299Z,13.45
2023-01-01T00:07:44.130Z,20.83
2023-01-01T00:12:48.244Z,12.75
2023-01-01T00:17:51.055Z,13.90
2023-01-01T00:22:56.105Z,10.55
2023-01-01T00:28:00.838Z,13.13
2023-01-01T00:33:03.590Z,12.10
2023-01-01T00:38:06.375Z,13.68
2023-01-01T00:43:10.578Z,12.10
2023-01-01T00:48:13.370Z,13.00
2023-01-01T00:53:16.705Z,11.98
2023-01-01T00:58:20.902Z,15.73
2023-01-01T01:03:30.452Z,13.88
2023-01-01T01:08:34.997Z,13.68
2023-01-01T01:13:40.198Z,12.55
2023-01-01T01:18:43.345Z,16.83
2023-01-01T01:23:46.549Z,13.57
2023-01-01T01:28:51.429Z,11.90
2023-01-01T01:33:54.270Z,17.05
2023-01-01T01:38:57.419Z,11.93
2023-01-01T01:44:03.221Z,13.02
2023-01-01T01:49:13.792Z,10.05
2023-01-01T01:54:21.638Z,16.05
2023-01-01T01:59:28.313Z,13.45
2023-01-01T02:04:31.179Z,11.18
2023-01-01T02:09:34.107Z,11.95
2023-01-01T02:14:38.270Z,11.95
2023-01-01T02:19:56.679Z,8.48
2023-01-01T02:25:10.017Z,7.75
2023-01-01T02:30:15.407Z,12.35
2023-01-01T02:35:38.776Z,8.43
2023-01-01T02:40:45.230Z,10.15
2023-01-01T02:45:49.951Z,11.35
2023-01-01T02:50:53.218Z,10.05
2023-01-01T02:56:06.135Z,9.00
2023-01-01T03:01:19.768Z,12.60
2023-01-01T03:06:30.834Z,11.32
2023-01-01T03:11:43.337Z,11.65
2023-01-01T03:16:50.058Z,9.65
2023-01-01T03:21:59.135Z,11.75
2023-01-01T03:27:06.147Z,16.15
2023-01-01T03:32:14.469Z,12.05
2023-01-01T03:42:33.371Z,13.67
2023-01-01T03:47:38.372Z,13.13
2023-01-01T03:52:50.824Z,11.77
2023-01-01T03:58:03.226Z,12.88
2023-01-01T04:03:10.669Z,13.70
2023-01-01T04:08:15.952Z,11.20
2023-01-01T04:13:18.806Z,11.15
2023-01-01T04:18:22.925Z,10.45
2023-01-01T04:23:25.730Z,12.13
2023-01-01T04:28:28.482Z,13.38
2023-01-01T04:33:32.969Z,12.93
2023-01-01T04:38:36.803Z,10.80
2023-01-01T04:43:39.543Z,11.55
2023-01-01T04:48:43.766Z,10.38
2023-01-01T04:53:47.123Z,12.23
2023-01-01T04:58:50.622Z,13.15
2023-01-01T05:03:55.440Z,10.18
2023-01-01T05:08:59.574Z,9.15
2023-01-01T05:14:03.142Z,7.82
2023-01-01T05:19:08.912Z,8.80
2023-01-01T05:24:12.249Z,12.07
2023-01-01T05:29:17.043Z,11.10
2023-01-01T05:34:21.486Z,8.30
2023-01-01T05:39:24.235Z,10.90
2023-01-01T05:44:27.008Z,7.82
2023-01-01T05:49:31.152Z,9.70
2023-01-01T05:54:33.956Z,7.90
2023-01-01T05:59:36.735Z,7.32
2023-01-01T06:04:40.933Z,9.95
2023-01-01T06:09:44.081Z,8.77
2023-01-01T06:14:46.900Z,7.43
2023-01-01T06:19:51.004Z,7.97
2023-01-01T06:24:53.744Z,6.82
2023-01-01T06:29:57.658Z,7.90
2023-01-01T06:35:01.766Z,9.35
2023-01-01T06:40:05.868Z,6.68
2023-01-01T06:45:10.212Z,8.55
2023-01-01T06:50:14.344Z,5.18
2023-01-01T06:55:17.286Z,7.75
2023-01-01T07:00:20.245Z,8.07
2023-01-01T07:05:24.397Z,6.05
2023-01-01T07:10:27.252Z,8.55
2023-01-01T07:15:31.519Z,6.03
2023-01-01T07:20:35.713Z,8.27
2023-01-01T07:25:38.500Z,7.78
2023-01-01T07:30:41.345Z,9.13
2023-01-01T07:35:46.429Z,5.32
2023-01-01T07:40:49.245Z,6.65
2023-01-01T07:45:52.098Z,5.63
2023-01-01T07:50:56.340Z,4.93
2023-01-01T07:55:59.161Z,7.75
2023-01-01T08:01:01.997Z,7.25
2023-01-01T08:06:10.003Z,9.25
2023-01-01T08:11:12.757Z,5.15
2023-01-01T08:16:15.588Z,4.20
2023-01-01T08:21:19.725Z,7.35
2023-01-01T08:26:29.295Z,6.93
2023-01-01T08:31:32.135Z,2.92
2023-01-01T08:36:36.402Z,3.78
2023-01-01T08:41:39.195Z,2.92
2023-01-01T08:46:42.097Z,3.30
2023-01-01T08:51:46.346Z,5.75
2023-01-01T08:56:49.155Z,3.67
2023-01-01T09:01:52.084Z,2.72
2023-01-01T09:06:56.375Z,6.78
2023-01-01T09:12:04.037Z,2.88
2023-01-01T09:17:07.096Z,4.00
2023-01-01T09:22:12.276Z,3.60
2023-01-01T09:27:15.091Z,3.33
2023-01-01T09:32:18.628Z,3.10
2023-01-01T09:37:22.727Z,4.68
2023-01-01T09:42:36.852Z,4.55
2023-01-01T09:47:42.727Z,4.28
2023-01-01T09:52:51.877Z,4.60
2023-01-01T09:57:56.563Z,5.60
2023-01-01T10:03:14.389Z,4.30
2023-01-01T10:08:31.536Z,4.37
2023-01-01T10:13:39.231Z,3.05
2023-01-01T10:18:43.475Z,3.85
2023-01-01T10:23:53.782Z,5.65
2023-01-01T10:29:02.560Z,5.35
2023-01-01T10:34:15.908Z,6.22
2023-01-01T10:39:20.600Z,4.05
2023-01-01T10:44:31.004Z,2.45
2023-01-01T10:49:33.983Z,5.40
2023-01-01T10:54:41.618Z,5.50
2023-01-01T10:59:53.518Z,2.27
2023-01-01T11:05:21.524Z,3.90
2023-01-01T11:10:26.719Z,4.07
2023-01-01T11:15:37.828Z,4.28
2023-01-01T11:20:41.580Z,2.08
2023-01-01T11:26:01.293Z,6.47
2023-01-01T11:31:16.993Z,3.33
2023-01-01T11:36:25.527Z,3.13
2023-01-01T11:41:29.790Z,3.95
2023-01-01T11:46:33.169Z,5.18
2023-01-01T11:51:36.145Z,3.50
2023-01-01T11:56:41.210Z,3.60
2023-01-01T12:01:48.135Z,5.78
2023-01-01T12:06:56.622Z,5.43
2023-01-01T12:17:15.993Z,4.97
2023-01-01T12:22:20.458Z,4.30
2023-01-01T12:27:43.379Z,2.17
2023-01-01T12:33:08.230Z,2.50
2023-01-01T12:38:20.765Z,4.10
2023-01-01T12:43:32.851Z,5.00
2023-01-01T12:49:08.576Z,5.78
2023-01-01T12:54:55.599Z,5.85
2023-01-01T13:00:04.425Z,5.18
2023-01-01T13:05:17.085Z,4.13
2023-01-01T13:10:27.586Z,5.03
2023-01-01T13:15:49.379Z,4.63
2023-01-01T13:20:58.271Z,6.65
2023-01-01T13:26:32.112Z,7.22
2023-01-01T13:32:01.944Z,7.53
2023-01-01T13:37:26.847Z,6.03
2023-01-01T13:42:43.856Z,7.30
2023-01-01T13:48:05.701Z,6.28
2023-01-01T13:53:38.396Z,9.98
2023-01-01T13:59:07.805Z,6.95
2023-01-01T14:04:27.319Z,4.88
2023-01-01T14:09:30.196Z,8.48
2023-01-01T14:14:34.372Z,7.07
2023-01-01T14:19:41.580Z,6.32
2023-01-01T14:24:47.130Z,5.80
2023-01-01T14:29:52.410Z,10.85
2023-01-01T14:35:03.566Z,7.65
2023-01-01T14:40:17.022Z,7.90
2023-01-01T14:45:20.271Z,6.10
2023-01-01T14:50:30.839Z,5.82
2023-01-01T14:55:40.371Z,8.77
2023-01-01T15:00:43.427Z,6.45
2023-01-01T15:05:58.821Z,10.05
2023-01-01T15:11:04.482Z,4.72
2023-01-01T15:16:17.681Z,7.43
2023-01-01T15:21:38.734Z,4.50
2023-01-01T15:26:44.202Z,7.18
2023-01-01T15:31:50.341Z,7.68
2023-01-01T15:36:56.693Z,6.82
2023-01-01T15:41:59.636Z,7.20
2023-01-01T15:47:12.721Z,5.18
2023-01-01T15:52:27.792Z,9.13
2023-01-01T15:57:30.707Z,7.90
2023-01-01T16:02:36.480Z,6.88
2023-01-01T16:07:40.804Z,4.80
2023-01-01T16:12:43.602Z,9.50
2023-01-01T16:17:47.177Z,7.80
2023-01-01T16:22:51.328Z,15.68
2023-01-01T16:27:54.081Z,8.02
2023-01-01T16:32:57.135Z,11.13
2023-01-01T16:38:01.248Z,10.38
2023-01-01T16:43:05.751Z,8.77
2023-01-01T16:48:08.669Z,5.82
2023-01-01T16:53:14.603Z,9.57
2023-01-01T16:58:48.613Z,5.78
2023-01-01T17:03:40.270Z,10.93
2023-01-01T17:08:44.463Z,11.55
2023-01-01T17:13:48.615Z,9.85
2023-01-01T17:24:16.616Z,10.38
2023-01-01T17:29:19.720Z,6.93
2023-01-01T17:34:22.761Z,7.80
2023-01-01T17:39:27.061Z,6.88
2023-01-01T17:44:32.015Z,11.18
2023-01-01T17:49:34.916Z,15.07
2023-01-01T17:54:39.299Z,9.48
2023-01-01T17:59:42.098Z,8.25
2023-01-01T18:04:45.143Z,8.45
2023-01-01T18:09:49.804Z,6.20
2023-01-01T18:14:52.663Z,10.68
2023-01-01T18:19:55.465Z,32.75
2023-01-01T18:24:59.789Z,24.52
2023-01-01T18:30:02.640Z,30.58
2023-01-01T18:35:06.528Z,14.70
2023-01-01T18:40:15.318Z,10.27
2023-01-01T18:45:21.333Z,10.50
2023-01-01T18:50:27.519Z,9.95
2023-01-01T18:55:32.291Z,11.65
2023-01-01T19:00:38.200Z,9.37
2023-01-01T19:05:41.039Z,9.73
2023-01-01T19:10:49.759Z,8.30
2023-01-01T19:15:58.331Z,10.48
2023-01-01T19:21:15.834Z,9.95
2023-01-01T19:26:25.705Z,8.70
2023-01-01T19:31:36.133Z,9.85
2023-01-01T19:36:39.308Z,11.35
2023-01-01T19:41:44.959Z,11.77
2023-01-01T19:46:47.878Z,12.40
2023-01-01T19:51:52.742Z,15.07
2023-01-01T19:56:58.213Z,12.00
2023-01-01T20:07:25.367Z,8.73
2023-01-01T20:12:29.581Z,9.10
2023-01-01T20:17:32.545Z,8.90
2023-01-01T20:22:35.822Z,11.00
2023-01-01T20:28:00.596Z,9.77
2023-01-01T20:33:06.366Z,9.88
2023-01-01T20:38:09.221Z,9.40
2023-01-01T20:43:13.505Z,11.73
2023-01-01T20:48:19.781Z,7.88
2023-01-01T20:53:22.939Z,10.02
2023-01-01T20:58:28.419Z,10.85
2023-01-01T21:03:31.438Z,10.05
2023-01-01T21:08:34.400Z,9.88
2023-01-01T21:13:38.968Z,9.93
2023-01-01T21:18:42.291Z,8.65
2023-01-01T21:23:45.152Z,10.60
2023-01-01T21:28:49.573Z,7.07
2023-01-01T21:33:52.524Z,12.45
2023-01-01T21:38:55.539Z,8.48
2023-01-01T21:44:00.214Z,8.77
2023-01-01T21:49:07.684Z,10.13
2023-01-01T21:54:19.400Z,7.57
2023-01-01T21:59:38.516Z,9.40
2023-01-01T22:04:43.021Z,7.47
2023-01-01T22:09:47.966Z,6.95
2023-01-01T22:14:54.001Z,7.68
2023-01-01T22:20:00.777Z,6.18
2023-01-01T22:25:26.189Z,9.80
2023-01-01T22:30:41.320Z,7.00
2023-01-01T22:35:44.519Z,7.35
2023-01-01T22:40:49.779Z,7.63
2023-01-01T22:45:54.671Z,6.25
2023-01-01T22:51:01.828Z,4.97
2023-01-01T22:56:04.926Z,6.38
2023-01-01T23:01:09.127Z,6.57
2023-01-01T23:06:11.996Z,7.28
2023-01-01T23:11:14.810Z,9.30
2023-01-01T23:16:19.052Z,9.10
2023-01-01T23:21:27.283Z,8.25
2023-01-01T23:31:35.328Z,8.13
2023-01-01T23:36:39.281Z,6.55
2023-01-01T23:41:42.289Z,6.10
2023-01-01T23:46:46.859Z,6.25
2023-01-01T23:51:50.879Z,5.30
2023-01-01T23:56:53.644Z,6.05
